createdAt,value
2018-12-08T00:00:33.836Z,994.26
2018-12-08T00:01:33.851Z,994.31
2018-12-08T00:02:33.880Z,994.03
2018-12-08T00:03:33.898Z,994.22
2018-12-08T00:04:33.935Z,994.45
2018-12-08T00:05:33.942Z,994.46
2018-12-08T00:06:33.971Z,994.44
2018-12-08T00:07:34.001Z,994.42
2018-12-08T00:08:34.019Z,994.47
2018-12-08T00:09:34.025Z,994.52
2018-12-08T00:10:34.078Z,994.44
2018-12-08T00:11:34.084Z,994.31
2018-12-08T00:12:34.123Z,994.46
2018-12-08T00:13:34.128Z,994.51
2018-12-08T00:14:34.171Z,994.57
2018-12-08T00:15:34.174Z,994.57
2018-12-08T00:16:34.207Z,994.69
2018-12-08T00:17:34.216Z,994.56
2018-12-08T00:18:34.242Z,994.77
2018-12-08T00:19:34.256Z,994.83
2018-12-08T00:20:34.288Z,994.82
2018-12-08T00:21:34.308Z,994.83
2018-12-08T00:22:34.324Z,994.95
2018-12-08T00:23:34.345Z,994.95
2018-12-08T00:24:34.377Z,994.95
2018-12-08T00:25:34.396Z,994.91
2018-12-08T00:26:34.419Z,995.02
2018-12-08T00:27:34.438Z,995.14
2018-12-08T00:28:34.474Z,995.17
2018-12-08T00:29:34.486Z,995.26
2018-12-08T00:30:34.509Z,995.27
2018-12-08T00:31:34.535Z,995.31
2018-12-08T00:32:34.547Z,995.35
2018-12-08T00:33:34.574Z,995.30
2018-12-08T00:34:34.590Z,995.31
2018-12-08T00:35:34.622Z,995.38
2018-12-08T00:36:34.635Z,995.42
2018-12-08T00:37:34.665Z,995.46
2018-12-08T00:38:34.684Z,995.57
2018-12-08T00:39:34.721Z,995.55
2018-12-08T00:40:34.733Z,995.41
2018-12-08T00:41:34.755Z,995.43
2018-12-08T00:42:34.773Z,995.53
2018-12-08T00:43:34.791Z,995.68
2018-12-08T00:44:34.826Z,995.62
2018-12-08T00:45:34.837Z,995.66
2018-12-08T00:46:34.859Z,995.81
2018-12-08T00:47:34.885Z,995.73
2018-12-08T00:48:34.911Z,995.91
2018-12-08T00:49:34.930Z,996.10
2018-12-08T00:50:34.951Z,996.03
2018-12-08T00:51:34.983Z,996.02
2018-12-08T00:52:34.992Z,996.23
2018-12-08T00:53:35.026Z,996.18
2018-12-08T00:54:35.040Z,996.20
2018-12-08T00:55:35.060Z,996.37
2018-12-08T00:56:35.114Z,996.29
2018-12-08T00:57:35.104Z,996.37
2018-12-08T00:58:35.128Z,996.49
2018-12-08T00:59:35.148Z,996.36
2018-12-08T01:00:35.188Z,996.34
2018-12-08T01:01:35.192Z,996.40
2018-12-08T01:02:35.215Z,996.42
2018-12-08T01:03:35.238Z,996.49
2018-12-08T01:04:35.279Z,996.40
2018-12-08T01:05:35.283Z,996.48
2018-12-08T01:06:35.300Z,996.48
2018-12-08T01:07:35.330Z,996.45
2018-12-08T01:08:35.368Z,996.51
2018-12-08T01:09:35.479Z,996.47
2018-12-08T01:10:35.389Z,996.56
2018-12-08T01:11:35.425Z,996.59
2018-12-08T01:12:35.432Z,996.57
2018-12-08T01:13:35.452Z,996.59
2018-12-08T01:14:35.485Z,996.59
2018-12-08T01:15:35.509Z,996.70
2018-12-08T01:16:35.523Z,996.81
2018-12-08T01:17:35.545Z,996.89
2018-12-08T01:18:35.577Z,996.86
2018-12-08T01:19:35.588Z,996.86
2018-12-08T01:20:35.609Z,996.83
2018-12-08T01:21:35.633Z,996.97
2018-12-08T01:22:35.664Z,996.84
2018-12-08T01:23:35.674Z,996.84
2018-12-08T01:24:35.700Z,996.92
2018-12-08T01:25:35.727Z,996.97
2018-12-08T01:26:35.748Z,996.91
2018-12-08T01:27:35.767Z,997.05
2018-12-08T01:28:35.787Z,997.08
2018-12-08T01:29:35.803Z,997.08
2018-12-08T01:30:35.869Z,997.12
2018-12-08T01:31:35.859Z,997.02
2018-12-08T01:32:35.884Z,997.06
2018-12-08T01:33:35.896Z,997.01
2018-12-08T01:34:35.924Z,997.04
2018-12-08T01:35:35.947Z,997.04
2018-12-08T01:36:35.959Z,997.02
2018-12-08T01:37:35.988Z,997.06
2018-12-08T01:38:36.055Z,997.17
2018-12-08T01:39:36.036Z,997.12
2018-12-08T01:40:36.051Z,997.18
2018-12-08T01:41:36.206Z,997.23
2018-12-08T01:42:36.097Z,997.23
2018-12-08T01:43:36.115Z,997.20
2018-12-08T01:44:36.142Z,997.21
2018-12-08T01:45:36.153Z,997.30
2018-12-08T01:46:36.200Z,997.17
2018-12-08T01:47:36.203Z,997.04
2018-12-08T01:48:36.220Z,997.10
2018-12-08T01:49:36.251Z,997.16
2018-12-08T01:50:36.264Z,997.17
2018-12-08T01:51:36.285Z,997.14
2018-12-08T01:52:36.304Z,997.11
2018-12-08T01:53:36.336Z,997.10
2018-12-08T01:54:36.353Z,997.14
2018-12-08T01:55:36.379Z,997.20
2018-12-08T01:56:36.407Z,997.17
2018-12-08T01:57:36.413Z,997.20
2018-12-08T01:58:36.435Z,997.26
2018-12-08T01:59:36.458Z,997.24
2018-12-08T02:00:36.501Z,997.31
2018-12-08T02:01:36.507Z,997.31
2018-12-08T02:02:36.525Z,997.34
2018-12-08T02:03:36.553Z,997.37
2018-12-08T02:04:36.566Z,997.43
2018-12-08T02:05:36.605Z,997.43
2018-12-08T02:06:36.614Z,997.44
2018-12-08T02:07:36.628Z,997.53
2018-12-08T02:08:36.660Z,997.48
2018-12-08T02:09:36.678Z,997.56
2018-12-08T02:10:36.706Z,997.54
2018-12-08T02:11:36.718Z,997.58
2018-12-08T02:12:36.743Z,997.58
2018-12-08T02:13:36.795Z,997.64
2018-12-08T02:14:36.786Z,997.64
2018-12-08T02:15:36.805Z,997.65
2018-12-08T02:16:36.822Z,997.70
2018-12-08T02:17:36.858Z,997.74
2018-12-08T02:18:36.867Z,997.69
2018-12-08T02:19:36.893Z,997.69
2018-12-08T02:20:36.922Z,997.69
2018-12-08T02:21:36.938Z,997.67
2018-12-08T02:22:36.963Z,997.70
2018-12-08T02:23:36.982Z,997.68
2018-12-08T02:24:36.999Z,997.59
2018-12-08T02:25:37.026Z,997.65
2018-12-08T02:26:37.042Z,997.72
2018-12-08T02:27:37.070Z,997.68
2018-12-08T02:28:37.102Z,997.68
2018-12-08T02:29:37.113Z,997.65
2018-12-08T02:30:37.137Z,997.65
2018-12-08T02:31:37.156Z,997.66
2018-12-08T02:32:37.178Z,997.66
2018-12-08T02:33:37.200Z,997.64
2018-12-08T02:34:37.213Z,997.62
2018-12-08T02:35:37.233Z,997.65
2018-12-08T02:36:37.267Z,997.65
2018-12-08T02:37:37.284Z,997.59
2018-12-08T02:38:37.309Z,997.64
2018-12-08T02:39:37.335Z,997.67
2018-12-08T02:40:37.351Z,997.65
2018-12-08T02:41:37.366Z,997.62
2018-12-08T02:42:37.388Z,997.62
2018-12-08T02:43:37.422Z,997.65
2018-12-08T02:44:37.431Z,997.66
2018-12-08T02:45:37.458Z,997.66
2018-12-08T02:46:37.479Z,997.76
2018-12-08T02:47:37.508Z,997.77
2018-12-08T02:48:37.516Z,997.72
2018-12-08T02:49:37.539Z,997.68
2018-12-08T02:50:37.571Z,997.72
2018-12-08T02:51:37.579Z,997.70
2018-12-08T02:52:37.617Z,997.71
2018-12-08T02:53:37.628Z,997.68
2018-12-08T02:54:37.663Z,997.71
2018-12-08T02:55:37.683Z,997.69
2018-12-08T02:56:37.690Z,997.76
2018-12-08T02:57:37.719Z,997.82
2018-12-08T02:58:37.733Z,997.82
2018-12-08T02:59:37.753Z,997.85
2018-12-08T03:00:37.787Z,997.88
2018-12-08T03:01:37.801Z,997.87
2018-12-08T03:02:37.819Z,998.01
2018-12-08T03:03:37.841Z,998.01
2018-12-08T03:04:37.861Z,998.01
2018-12-08T03:05:37.885Z,997.93
2018-12-08T03:06:37.901Z,997.89
2018-12-08T03:07:37.932Z,997.88
2018-12-08T03:08:37.963Z,997.83
2018-12-08T03:09:37.991Z,997.85
2018-12-08T03:10:37.991Z,997.96
2018-12-08T03:11:38.007Z,997.94
2018-12-08T03:12:38.033Z,998.01
2018-12-08T03:13:38.063Z,997.98
2018-12-08T03:14:38.078Z,998.06
2018-12-08T03:15:38.100Z,998.08
2018-12-08T03:16:38.119Z,998.09
2018-12-08T03:17:38.144Z,998.20
2018-12-08T03:18:38.185Z,998.30
2018-12-08T03:19:38.184Z,998.34
2018-12-08T03:20:38.207Z,998.31
2018-12-08T03:21:38.234Z,998.29
2018-12-08T03:22:38.245Z,998.33
2018-12-08T03:23:38.274Z,998.28
2018-12-08T03:24:38.297Z,998.29
2018-12-08T03:25:38.313Z,998.32
2018-12-08T03:26:38.346Z,998.29
2018-12-08T03:27:38.354Z,998.35
2018-12-08T03:28:38.382Z,998.42
2018-12-08T03:29:38.410Z,998.45
2018-12-08T03:30:38.418Z,998.48
2018-12-08T03:31:38.443Z,998.51
2018-12-08T03:32:38.467Z,998.54
2018-12-08T03:33:38.489Z,998.51
2018-12-08T03:34:38.504Z,998.50
2018-12-08T03:35:38.527Z,998.52
2018-12-08T03:36:38.552Z,998.49
2018-12-08T03:37:38.583Z,998.54
2018-12-08T03:38:38.584Z,998.58
2018-12-08T03:39:38.609Z,998.60
2018-12-08T03:40:38.641Z,998.60
2018-12-08T03:41:38.656Z,998.69
2018-12-08T03:42:38.681Z,998.65
2018-12-08T03:43:38.705Z,998.66
2018-12-08T03:44:38.743Z,998.71
2018-12-08T03:45:38.767Z,998.66
2018-12-08T03:46:38.772Z,998.64
2018-12-08T03:47:38.793Z,998.69
2018-12-08T03:48:38.806Z,998.68
2018-12-08T03:49:38.841Z,998.70
2018-12-08T03:50:38.850Z,998.77
2018-12-08T03:51:38.870Z,998.80
2018-12-08T03:52:38.892Z,998.81
2018-12-08T03:53:38.915Z,998.84
2018-12-08T03:54:38.947Z,998.87
2018-12-08T03:55:38.954Z,998.93
2018-12-08T03:56:38.978Z,998.82
2018-12-08T03:57:39.000Z,998.85
2018-12-08T03:58:39.021Z,998.91
2018-12-08T03:59:39.046Z,998.87
2018-12-08T04:00:39.069Z,998.77
2018-12-08T04:01:39.090Z,998.85
2018-12-08T04:02:39.110Z,998.88
2018-12-08T04:03:39.133Z,998.88
2018-12-08T04:04:39.151Z,998.84
2018-12-08T04:05:39.171Z,998.82
2018-12-08T04:06:39.224Z,998.80
2018-12-08T04:07:39.222Z,998.81
2018-12-08T04:08:39.241Z,998.75
2018-12-08T04:09:39.263Z,998.75
2018-12-08T04:10:39.286Z,998.79
2018-12-08T04:11:39.323Z,998.80
2018-12-08T04:12:39.359Z,998.76
2018-12-08T04:13:39.347Z,998.70
2018-12-08T04:14:39.367Z,998.78
2018-12-08T04:15:39.384Z,998.74
2018-12-08T04:16:39.421Z,998.82
2018-12-08T04:17:39.428Z,998.77
2018-12-08T04:18:39.447Z,998.83
2018-12-08T04:19:39.475Z,998.87
2018-12-08T04:20:39.495Z,998.87
2018-12-08T04:21:39.522Z,998.84
2018-12-08T04:22:39.538Z,998.86
2018-12-08T04:23:39.566Z,998.87
2018-12-08T04:24:39.581Z,998.91
2018-12-08T04:25:39.601Z,998.93
2018-12-08T04:26:39.619Z,998.90
2018-12-08T04:27:39.651Z,998.98
2018-12-08T04:28:39.665Z,998.93
2018-12-08T04:29:39.684Z,999.01
2018-12-08T04:30:39.705Z,999.01
2018-12-08T04:31:39.727Z,999.07
2018-12-08T04:32:39.743Z,999.09
2018-12-08T04:33:39.769Z,999.07
2018-12-08T04:34:39.797Z,999.08
2018-12-08T04:35:39.814Z,999.10
2018-12-08T04:36:39.831Z,999.10
2018-12-08T04:37:39.852Z,999.12
2018-12-08T04:38:39.885Z,999.12
2018-12-08T04:39:39.896Z,999.16
2018-12-08T04:40:39.925Z,999.20
2018-12-08T04:41:39.945Z,999.15
2018-12-08T04:42:39.960Z,999.19
2018-12-08T04:43:39.984Z,999.16
2018-12-08T04:44:40.002Z,999.19
2018-12-08T04:45:40.036Z,999.14
2018-12-08T04:46:40.044Z,999.21
2018-12-08T04:47:40.078Z,999.23
2018-12-08T04:48:40.092Z,999.25
2018-12-08T04:49:40.116Z,999.22
2018-12-08T04:50:40.130Z,999.25
2018-12-08T04:51:40.163Z,999.24
2018-12-08T04:52:40.182Z,999.24
2018-12-08T04:53:40.198Z,999.31
2018-12-08T04:54:40.214Z,999.28
2018-12-08T04:55:40.240Z,999.32
2018-12-08T04:56:40.272Z,999.35
2018-12-08T04:57:40.286Z,999.35
2018-12-08T04:58:40.304Z,999.38
2018-12-08T04:59:40.323Z,999.46
2018-12-08T05:00:40.347Z,999.52
2018-12-08T05:01:40.367Z,999.51
2018-12-08T05:02:40.389Z,999.59
2018-12-08T05:03:40.419Z,999.61
2018-12-08T05:04:40.441Z,999.61
2018-12-08T05:05:40.461Z,999.63
2018-12-08T05:06:40.477Z,999.62
2018-12-08T05:07:40.499Z,999.65
2018-12-08T05:08:40.515Z,999.65
2018-12-08T05:09:40.537Z,999.69
2018-12-08T05:10:40.558Z,999.69
2018-12-08T05:11:40.580Z,999.79
2018-12-08T05:12:40.599Z,999.84
2018-12-08T05:13:40.618Z,999.88
2018-12-08T05:14:40.658Z,999.92
2018-12-08T05:15:40.661Z,999.89
2018-12-08T05:16:40.682Z,999.92
2018-12-08T05:17:40.708Z,999.94
2018-12-08T05:18:40.727Z,999.94
2018-12-08T05:19:40.743Z,999.96
2018-12-08T05:20:40.770Z,999.90
2018-12-08T05:21:40.802Z,999.93
2018-12-08T05:22:40.810Z,999.92
2018-12-08T05:23:40.830Z,999.93
2018-12-08T05:24:40.849Z,999.88
2018-12-08T05:25:40.877Z,999.87
2018-12-08T05:26:40.895Z,999.91
2018-12-08T05:27:40.925Z,999.87
2018-12-08T05:28:40.934Z,999.80
2018-12-08T05:29:40.961Z,999.85
2018-12-08T05:30:40.985Z,999.84
2018-12-08T05:31:41.007Z,999.85
2018-12-08T05:32:41.027Z,999.83
2018-12-08T05:33:41.047Z,999.82
2018-12-08T05:34:41.067Z,999.82
2018-12-08T05:35:41.090Z,999.84
2018-12-08T05:36:41.112Z,999.84
2018-12-08T05:37:41.127Z,999.94
2018-12-08T05:38:41.154Z,999.87
2018-12-08T05:39:41.273Z,999.87
2018-12-08T05:40:41.194Z,999.91
2018-12-08T05:41:41.216Z,999.88
2018-12-08T05:42:41.234Z,999.93
2018-12-08T05:43:41.266Z,999.92
2018-12-08T05:44:41.277Z,999.91
2018-12-08T05:45:41.296Z,999.95
2018-12-08T05:46:41.324Z,999.97
2018-12-08T05:47:41.355Z,999.96
2018-12-08T05:48:41.371Z,999.96
2018-12-08T05:49:41.385Z,999.95
2018-12-08T05:50:41.419Z,999.95
2018-12-08T05:51:41.427Z,999.97
2018-12-08T05:52:41.449Z,999.91
2018-12-08T05:53:41.471Z,999.95
2018-12-08T05:54:41.493Z,999.99
2018-12-08T05:55:41.513Z,1000.01
2018-12-08T05:56:41.548Z,1000.06
2018-12-08T05:57:41.550Z,1000.02
2018-12-08T05:58:41.587Z,1000.07
2018-12-08T05:59:41.598Z,1000.01
2018-12-08T06:00:41.623Z,1000.01
2018-12-08T06:01:41.634Z,1000.01
2018-12-08T06:02:41.662Z,1000.00
2018-12-08T06:03:41.680Z,1000.02
2018-12-08T06:04:41.708Z,1000.00
2018-12-08T06:05:41.726Z,1000.01
2018-12-08T06:06:41.742Z,999.99
2018-12-08T06:07:41.767Z,1000.01
2018-12-08T06:08:41.784Z,1000.00
2018-12-08T06:09:41.817Z,1000.03
2018-12-08T06:10:41.826Z,1000.00
2018-12-08T06:11:41.859Z,1000.03
2018-12-08T06:12:41.870Z,1000.02
2018-12-08T06:13:41.923Z,1000.00
2018-12-08T06:14:41.910Z,999.95
2018-12-08T06:15:41.935Z,999.99
2018-12-08T06:16:41.961Z,1000.04
2018-12-08T06:17:41.973Z,1000.00
2018-12-08T06:18:41.993Z,1000.01
2018-12-08T06:19:42.021Z,999.99
2018-12-08T06:20:42.043Z,999.99
2018-12-08T06:21:42.053Z,999.97
2018-12-08T06:22:42.089Z,999.98
2018-12-08T06:23:42.108Z,999.94
2018-12-08T06:24:42.126Z,999.99
2018-12-08T06:25:42.141Z,999.96
2018-12-08T06:26:42.174Z,1000.01
2018-12-08T06:27:42.191Z,999.99
2018-12-08T06:28:42.205Z,999.95
2018-12-08T06:29:42.223Z,999.91
2018-12-08T06:30:42.245Z,999.88
2018-12-08T06:31:42.266Z,999.88
2018-12-08T06:32:42.287Z,999.86
2018-12-08T06:33:42.310Z,999.89
2018-12-08T06:34:42.329Z,999.87
2018-12-08T06:35:42.355Z,999.87
2018-12-08T06:36:42.374Z,999.87
2018-12-08T06:37:42.404Z,999.85
2018-12-08T06:38:42.416Z,999.84
2018-12-08T06:39:42.443Z,999.87
2018-12-08T06:40:42.456Z,999.87
2018-12-08T06:41:42.479Z,999.83
2018-12-08T06:42:42.506Z,999.89
2018-12-08T06:43:42.523Z,999.90
2018-12-08T06:44:42.552Z,999.90
2018-12-08T06:45:42.569Z,999.96
2018-12-08T06:46:42.589Z,999.94
2018-12-08T06:47:42.605Z,999.85
2018-12-08T06:48:42.646Z,999.90
2018-12-08T06:49:42.647Z,999.89
2018-12-08T06:50:42.675Z,999.93
2018-12-08T06:51:42.679Z,999.94
2018-12-08T06:52:42.710Z,999.96
2018-12-08T06:53:42.726Z,999.93
2018-12-08T06:54:42.752Z,999.94
2018-12-08T06:55:42.766Z,999.93
2018-12-08T06:56:42.808Z,999.90
2018-12-08T06:57:42.817Z,999.93
2018-12-08T06:58:42.834Z,999.93
2018-12-08T06:59:42.858Z,999.95
2018-12-08T07:00:42.880Z,999.94
2018-12-08T07:01:42.892Z,1000.02
2018-12-08T07:02:42.915Z,1000.00
2018-12-08T07:03:42.946Z,1000.05
2018-12-08T07:04:42.954Z,1000.02
2018-12-08T07:05:42.999Z,1000.05
2018-12-08T07:06:43.006Z,1000.04
2018-12-08T07:07:43.023Z,1000.08
2018-12-08T07:08:43.045Z,1000.06
2018-12-08T07:09:43.063Z,1000.05
2018-12-08T07:10:43.089Z,1000.04
2018-12-08T07:11:43.102Z,1000.01
2018-12-08T07:12:43.129Z,1000.00
2018-12-08T07:13:43.160Z,1000.02
2018-12-08T07:14:43.171Z,1000.01
2018-12-08T07:15:43.208Z,1000.04
2018-12-08T07:16:43.217Z,1000.05
2018-12-08T07:17:43.231Z,1000.09
2018-12-08T07:18:43.245Z,1000.05
2018-12-08T07:19:43.279Z,1000.04
2018-12-08T07:20:43.297Z,1000.05
2018-12-08T07:21:43.311Z,1000.00
2018-12-08T07:22:43.331Z,1000.00
2018-12-08T07:23:43.359Z,999.92
2018-12-08T07:24:43.387Z,999.91
2018-12-08T07:25:43.400Z,999.93
2018-12-08T07:26:43.419Z,999.86
2018-12-08T07:27:43.444Z,999.87
2018-12-08T07:28:43.466Z,999.88
2018-12-08T07:29:43.479Z,999.88
2018-12-08T07:30:43.495Z,999.89
2018-12-08T07:31:43.527Z,999.91
2018-12-08T07:32:43.538Z,999.94
2018-12-08T07:33:43.560Z,999.89
2018-12-08T07:34:43.594Z,999.95
2018-12-08T07:35:43.607Z,999.91
2018-12-08T07:36:43.622Z,999.91
2018-12-08T07:37:43.649Z,999.96
2018-12-08T07:38:43.691Z,999.89
2018-12-08T07:39:43.688Z,999.86
2018-12-08T07:40:43.705Z,999.85
2018-12-08T07:41:43.728Z,999.90
2018-12-08T07:42:43.754Z,999.90
2018-12-08T07:43:43.779Z,999.86
2018-12-08T07:44:43.793Z,999.86
2018-12-08T07:45:43.809Z,999.88
2018-12-08T07:46:43.855Z,999.86
2018-12-08T07:47:43.859Z,999.87
2018-12-08T07:48:43.874Z,999.85
2018-12-08T07:49:43.892Z,999.85
2018-12-08T07:50:43.923Z,999.85
2018-12-08T07:51:43.934Z,999.89
2018-12-08T07:52:43.957Z,999.86
2018-12-08T07:53:43.984Z,999.85
2018-12-08T07:54:44.009Z,999.84
2018-12-08T07:55:44.050Z,999.83
2018-12-08T07:56:44.039Z,999.87
2018-12-08T07:57:44.072Z,999.83
2018-12-08T07:58:44.082Z,999.81
2018-12-08T07:59:44.102Z,999.82
2018-12-08T08:00:44.162Z,999.80
2018-12-08T08:01:45.032Z,999.78
2018-12-08T08:02:44.175Z,999.74
2018-12-08T08:03:44.209Z,999.77
2018-12-08T08:04:44.229Z,999.74
2018-12-08T08:05:44.242Z,999.69
2018-12-08T08:06:44.250Z,999.69
2018-12-08T08:07:44.285Z,999.70
2018-12-08T08:08:44.295Z,999.65
2018-12-08T08:09:44.322Z,999.66
2018-12-08T08:10:44.332Z,999.63
2018-12-08T08:11:44.358Z,999.64
2018-12-08T08:12:44.388Z,999.67
2018-12-08T08:13:44.390Z,999.62
2018-12-08T08:14:44.419Z,999.61
2018-12-08T08:15:44.442Z,999.61
2018-12-08T08:16:44.464Z,999.58
2018-12-08T08:17:44.480Z,999.61
2018-12-08T08:18:44.511Z,999.61
2018-12-08T08:19:44.538Z,999.61
2018-12-08T08:20:44.551Z,999.60
2018-12-08T08:21:44.558Z,999.58
2018-12-08T08:22:44.580Z,999.52
2018-12-08T08:23:44.599Z,999.60
2018-12-08T08:24:44.629Z,999.60
2018-12-08T08:25:44.647Z,999.59
2018-12-08T08:26:45.487Z,999.58
2018-12-08T08:27:44.692Z,999.48
2018-12-08T08:28:44.722Z,999.50
2018-12-08T08:29:44.723Z,999.51
2018-12-08T08:30:45.539Z,999.52
2018-12-08T08:31:44.783Z,999.54
2018-12-08T08:33:44.865Z,999.59
2018-12-08T08:34:44.883Z,999.53
2018-12-08T08:35:44.880Z,999.54
2018-12-08T08:36:44.889Z,999.54
2018-12-08T08:37:44.893Z,999.46
2018-12-08T08:38:44.934Z,999.51
2018-12-08T08:40:05.958Z,999.45
2018-12-08T08:40:44.957Z,999.43
2018-12-08T08:41:45.061Z,999.48
2018-12-08T08:42:45.016Z,999.43
2018-12-08T08:43:45.024Z,999.51
2018-12-08T08:44:45.038Z,999.51
2018-12-08T08:46:06.081Z,999.43
2018-12-08T08:46:45.116Z,999.36
2018-12-08T08:47:45.102Z,999.41
2018-12-08T08:48:45.132Z,999.39
2018-12-08T08:49:45.171Z,999.48
2018-12-08T08:50:45.183Z,999.55
2018-12-08T08:52:06.219Z,999.45
2018-12-08T08:52:45.213Z,999.42
2018-12-08T08:53:45.239Z,999.43
2018-12-08T08:55:45.313Z,999.41
2018-12-08T08:56:45.332Z,999.45
2018-12-08T08:58:06.349Z,999.42
2018-12-08T08:58:45.377Z,999.31
2018-12-08T08:59:45.385Z,999.36
2018-12-08T09:01:06.417Z,999.32
2018-12-08T09:01:46.117Z,999.29
2018-12-08T09:03:06.445Z,999.26
2018-12-08T09:03:45.467Z,999.28
2018-12-08T09:04:45.471Z,999.22
2018-12-08T09:06:06.525Z,999.26
2018-12-08T09:06:45.537Z,999.32
2018-12-08T09:08:06.577Z,999.25
2018-12-08T09:08:45.569Z,999.30
2018-12-08T09:09:45.611Z,999.24
2018-12-08T09:11:06.621Z,999.29
2018-12-08T09:11:45.620Z,999.25
2018-12-08T09:13:06.685Z,999.36
2018-12-08T09:13:45.669Z,999.33
2018-12-08T09:14:45.681Z,999.23
2018-12-08T09:16:06.730Z,999.17
2018-12-08T09:16:45.732Z,999.24
2018-12-08T09:18:06.774Z,999.14
2018-12-08T09:18:45.790Z,999.11
2018-12-08T09:19:45.788Z,999.16
2018-12-08T09:21:06.833Z,999.19
2018-12-08T09:21:45.827Z,999.16
2018-12-08T09:23:06.864Z,999.12
2018-12-08T09:23:45.879Z,999.17
2018-12-08T09:24:45.885Z,999.12
2018-12-08T09:26:06.937Z,999.03
2018-12-08T09:26:46.024Z,999.12
2018-12-08T09:28:06.986Z,999.06
2018-12-08T09:28:45.995Z,999.12
2018-12-08T09:29:46.003Z,999.16
2018-12-08T09:31:07.052Z,999.15
2018-12-08T09:31:46.043Z,999.04
2018-12-08T09:33:07.091Z,999.10
2018-12-08T09:33:46.084Z,999.13
2018-12-08T09:34:46.106Z,999.09
2018-12-08T09:36:07.147Z,999.11
2018-12-08T09:36:46.147Z,999.15
2018-12-08T09:38:07.184Z,999.14
2018-12-08T09:38:46.290Z,999.12
2018-12-08T09:39:46.231Z,999.06
2018-12-08T09:41:07.305Z,999.10
2018-12-08T09:41:46.271Z,999.01
2018-12-08T09:43:07.299Z,998.99
2018-12-08T09:43:46.310Z,998.98
2018-12-08T09:44:46.335Z,999.03
2018-12-08T09:46:07.369Z,999.01
2018-12-08T09:46:46.365Z,999.02
2018-12-08T09:48:07.625Z,999.02
2018-12-08T09:48:46.413Z,998.93
2018-12-08T09:49:46.430Z,998.97
2018-12-08T09:51:07.514Z,998.90
2018-12-08T09:51:46.472Z,998.94
2018-12-08T09:53:08.216Z,998.86
2018-12-08T09:53:46.606Z,998.91
2018-12-08T09:54:47.484Z,998.88
2018-12-08T09:56:07.579Z,998.95
2018-12-08T09:56:46.579Z,998.95
2018-12-08T09:58:07.608Z,998.85
2018-12-08T09:58:46.633Z,998.83
2018-12-08T09:59:46.658Z,998.79
2018-12-08T10:01:07.700Z,998.70
2018-12-08T10:01:46.706Z,998.69
2018-12-08T10:03:07.722Z,998.64
2018-12-08T10:03:46.735Z,998.71
2018-12-08T10:04:46.760Z,998.71
2018-12-08T10:06:08.544Z,998.67
2018-12-08T10:06:51.418Z,998.63
2018-12-08T10:08:07.857Z,998.62
2018-12-08T10:08:46.839Z,998.66
2018-12-08T10:09:46.869Z,998.61
2018-12-08T10:11:07.894Z,998.63
2018-12-08T10:11:46.908Z,998.60
2018-12-08T10:13:07.944Z,998.61
2018-12-08T10:13:46.943Z,998.60
2018-12-08T10:14:46.996Z,998.51
2018-12-08T10:16:47.070Z,998.51
2018-12-08T10:18:08.091Z,998.53
2018-12-08T10:18:47.103Z,998.50
2018-12-08T10:19:47.117Z,998.40
2018-12-08T10:22:18.992Z,998.45
2018-12-08T10:23:19.000Z,998.51
2018-12-08T10:25:12.216Z,998.37
2018-12-08T10:26:12.222Z,998.42
2018-12-08T10:28:05.416Z,998.38
2018-12-08T10:29:05.468Z,998.31
2018-12-08T10:31:13.951Z,998.39
2018-12-08T10:32:13.938Z,998.37
2018-12-08T10:34:07.091Z,998.29
2018-12-08T10:35:07.074Z,998.27
2018-12-08T10:37:00.260Z,998.27
2018-12-08T10:38:00.266Z,998.17
2018-12-08T10:39:53.533Z,998.28
2018-12-08T10:40:53.631Z,998.24
2018-12-08T10:43:02.150Z,998.19
2018-12-08T10:44:02.171Z,998.19
2018-12-08T10:46:10.925Z,998.21
2018-12-08T10:47:09.767Z,998.13
2018-12-08T10:49:02.877Z,998.08
2018-12-08T10:50:03.219Z,998.13
2018-12-08T10:51:56.279Z,998.04
2018-12-08T10:52:56.137Z,998.08
2018-12-08T10:55:04.774Z,998.00
2018-12-08T10:56:04.758Z,997.99
2018-12-08T10:57:58.052Z,997.96
2018-12-08T10:58:57.969Z,998.02
2018-12-08T11:00:52.015Z,997.99
2018-12-08T11:01:51.246Z,997.97
2018-12-08T11:03:44.855Z,997.95
2018-12-08T11:04:44.529Z,997.94
2018-12-08T11:06:37.906Z,997.86
2018-12-08T11:07:37.842Z,997.91
2018-12-08T11:09:31.809Z,997.88
2018-12-08T11:10:31.836Z,997.83
2018-12-08T11:12:25.039Z,997.83
2018-12-08T11:13:24.954Z,997.85
2018-12-08T11:15:18.166Z,997.73
2018-12-08T11:16:18.444Z,997.82
2018-12-08T11:18:11.428Z,997.81
2018-12-08T11:19:11.388Z,997.74
2018-12-08T11:21:04.580Z,997.65
2018-12-08T11:22:04.582Z,997.72
2018-12-08T11:23:57.829Z,997.70
2018-12-08T11:24:57.831Z,997.68
2018-12-08T11:26:51.192Z,997.71
2018-12-08T11:27:51.201Z,997.67
2018-12-08T11:29:44.321Z,997.62
2018-12-08T11:30:44.373Z,997.65
2018-12-08T11:32:37.527Z,997.58
2018-12-08T11:33:37.537Z,997.55
2018-12-08T11:35:30.803Z,997.52
2018-12-08T11:36:30.703Z,997.52
2018-12-08T11:38:23.875Z,997.44
2018-12-08T11:39:23.904Z,997.41
2018-12-08T11:41:34.513Z,997.39
2018-12-08T11:42:34.518Z,997.35
2018-12-08T11:44:45.077Z,997.30
2018-12-08T11:45:45.084Z,997.31
2018-12-08T11:47:38.405Z,997.30
2018-12-08T11:48:38.260Z,997.28
2018-12-08T11:50:31.433Z,997.30
2018-12-08T11:51:31.475Z,997.24
2018-12-08T11:53:41.933Z,997.21
2018-12-08T11:54:41.942Z,997.23
2018-12-08T11:56:35.199Z,997.27
2018-12-08T11:57:35.213Z,997.18
2018-12-08T11:59:28.355Z,997.13
2018-12-08T12:00:28.371Z,997.15
2018-12-08T12:02:20.530Z,997.12
2018-12-08T12:03:20.539Z,997.09
2018-12-08T12:05:12.685Z,997.02
2018-12-08T12:06:13.492Z,997.01
2018-12-08T12:08:05.896Z,997.15
2018-12-08T12:09:05.876Z,997.08
2018-12-08T12:11:15.343Z,997.05
2018-12-08T12:12:15.358Z,997.04
2018-12-08T12:14:08.530Z,997.05
2018-12-08T12:15:08.530Z,996.91
2018-12-08T12:17:01.810Z,997.01
2018-12-08T12:18:01.705Z,997.07
2018-12-08T12:19:01.721Z,996.93
2018-12-08T12:20:01.742Z,997.00
2018-12-08T12:21:01.768Z,997.02
2018-12-08T12:22:01.789Z,996.99
2018-12-08T12:23:01.806Z,996.88
2018-12-08T12:24:01.840Z,996.96
2018-12-08T12:25:01.851Z,997.00
2018-12-08T12:26:01.873Z,997.01
2018-12-08T12:27:01.891Z,997.02
2018-12-08T12:28:01.910Z,997.07
2018-12-08T12:29:01.951Z,996.95
2018-12-08T12:30:01.957Z,996.94
2018-12-08T12:31:01.976Z,996.96
2018-12-08T12:32:02.000Z,996.97
2018-12-08T12:33:02.020Z,996.83
2018-12-08T12:34:02.043Z,996.90
2018-12-08T12:35:02.082Z,996.89
2018-12-08T12:36:02.097Z,996.89
2018-12-08T12:37:02.109Z,996.92
2018-12-08T12:38:02.143Z,996.90
2018-12-08T12:39:02.163Z,996.91
2018-12-08T12:40:02.177Z,996.93
2018-12-08T12:41:02.198Z,996.90
2018-12-08T12:42:02.234Z,996.86
2018-12-08T12:43:02.250Z,996.90
2018-12-08T12:44:02.262Z,996.85
2018-12-08T12:45:02.301Z,996.85
2018-12-08T12:46:02.321Z,996.86
2018-12-08T12:47:02.331Z,996.77
2018-12-08T12:48:02.354Z,996.84
2018-12-08T12:49:02.376Z,996.91
2018-12-08T12:50:02.402Z,996.84
2018-12-08T12:51:02.415Z,996.83
2018-12-08T12:52:02.445Z,996.94
2018-12-08T12:53:02.467Z,996.86
2018-12-08T12:54:02.484Z,996.87
2018-12-08T12:55:02.510Z,996.88
2018-12-08T12:56:02.538Z,996.92
2018-12-08T12:57:02.555Z,996.87
2018-12-08T12:58:02.578Z,996.84
2018-12-08T12:59:02.601Z,996.81
2018-12-08T13:00:02.617Z,996.88
2018-12-08T13:01:02.632Z,996.86
2018-12-08T13:02:02.659Z,996.90
2018-12-08T13:03:02.691Z,996.83
2018-12-08T13:04:02.697Z,996.83
2018-12-08T13:05:02.727Z,996.80
2018-12-08T13:06:02.757Z,996.74
2018-12-08T13:07:02.765Z,996.78
2018-12-08T13:08:02.789Z,996.76
2018-12-08T13:09:02.812Z,996.69